Time;durP1;ratioP1;P1;durP2;ratioP2;P2;SDS_P1;SDS_P2;PMS_P1;PMS_P2;Temp;Humidity;BMP_temperature;BMP_pressure;BME280_temperature;BME280_humidity;BME280_pressure;Samples;Min_cycle;Max_cycle;Signal;HPM_P1;HPM_P2
2021/05/27 00:01:18;;;;;;;8.60;5.53;;;18.30;73.60;;;;;;5075429;28;20059;-46
2021/05/27 00:03:44;;;;;;;9.73;6.40;;;18.30;73.70;;;;;;5075178;28;20033;-47
2021/05/27 00:06:09;;;;;;;10.65;5.68;;;18.30;73.90;;;;;;5075499;28;20024;-46
2021/05/27 00:08:35;;;;;;;8.68;6.35;;;18.20;73.90;;;;;;5075109;28;20301;-47
2021/05/27 00:11:01;;;;;;;7.95;5.57;;;18.20;73.90;;;;;;5075170;28;20408;-46
2021/05/27 00:13:26;;;;;;;7.93;6.00;;;18.20;74.00;;;;;;5075421;28;20228;-47
2021/05/27 00:15:52;;;;;;;6.88;6.18;;;18.20;74.10;;;;;;5075157;28;20028;-46
2021/05/27 00:18:18;;;;;;;8.07;5.85;;;18.10;74.00;;;;;;5075283;28;20033;-45
2021/05/27 00:20:43;;;;;;;7.75;6.05;;;18.10;74.00;;;;;;5075400;28;20377;-45
2021/05/27 00:23:12;;;;;;;7.03;5.53;;;18.10;74.10;;;;;;5075535;28;20029;-45
2021/05/27 00:25:37;;;;;;;8.40;5.80;;;18.00;74.20;;;;;;5075194;28;20028;-46
2021/05/27 00:28:03;;;;;;;7.30;5.80;;;18.10;74.30;;;;;;5075238;28;20028;-46
2021/05/27 00:30:29;;;;;;;6.13;5.53;;;18.00;74.30;;;;;;5075226;28;20046;-47
2021/05/27 00:32:54;;;;;;;5.88;5.28;;;18.00;74.40;;;;;;5075387;28;20021;-47
2021/05/27 00:35:20;;;;;;;9.05;5.50;;;17.90;74.50;;;;;;5075366;28;20108;-46
2021/05/27 00:37:46;;;;;;;8.90;6.22;;;17.90;74.50;;;;;;5075080;28;20060;-47
2021/05/27 00:40:15;;;;;;;8.05;6.13;;;17.90;74.50;;;;;;5074787;28;20417;-48
2021/05/27 00:42:41;;;;;;;6.88;6.18;;;17.90;74.70;;;;;;5075254;28;20036;-48
2021/05/27 00:45:09;;;;;;;7.55;5.28;;;17.80;74.60;;;;;;5075239;28;20056;-45
2021/05/27 00:47:35;;;;;;;6.55;5.55;;;17.80;74.70;;;;;;5075275;28;20033;-47
2021/05/27 00:50:02;;;;;;;7.38;5.70;;;17.80;74.80;;;;;;5078492;28;20043;-47
2021/05/27 00:52:28;;;;;;;6.30;5.68;;;17.70;74.80;;;;;;5079169;28;20085;-47
2021/05/27 00:54:58;;;;;;;9.50;6.03;;;17.70;74.90;;;;;;5078302;28;20052;-46
2021/05/27 00:57:30;;;;;;;6.82;5.68;;;17.70;75.20;;;;;;5078925;28;20420;-47
2021/05/27 00:59:57;;;;;;;7.35;5.90;;;17.60;75.10;;;;;;5078475;28;20457;-47
2021/05/27 01:02:22;;;;;;;8.38;5.72;;;17.60;75.30;;;;;;5078858;28;20033;-47
2021/05/27 01:04:49;;;;;;;9.00;6.15;;;17.50;75.30;;;;;;5078751;28;20439;-48
2021/05/27 01:07:15;;;;;;;7.43;5.65;;;17.60;75.50;;;;;;5078668;28;20032;-46
2021/05/27 01:09:42;;;;;;;6.70;5.57;;;17.50;75.40;;;;;;5078629;28;20123;-46
2021/05/27 01:12:09;;;;;;;8.23;5.72;;;17.50;75.50;;;;;;5078707;28;20325;-46
2021/05/27 01:17:19;;;;;;;7.55;5.18;;;17.40;75.60;;;;;;5078153;28;20036;-46
2021/05/27 01:19:45;;;;;;;10.75;5.68;;;17.40;75.60;;;;;;5078473;28;20033;-46
2021/05/27 01:22:10;;;;;;;8.55;5.63;;;17.40;75.70;;;;;;5078457;28;20021;-46
2021/05/27 01:24:36;;;;;;;9.57;4.85;;;17.40;75.70;;;;;;5078323;28;20047;-46
2021/05/27 01:27:02;;;;;;;9.10;6.18;;;17.40;75.80;;;;;;5078159;28;20032;-46
2021/05/27 01:29:27;;;;;;;8.77;5.68;;;17.40;75.80;;;;;;5078023;28;20029;-47
2021/05/27 01:31:53;;;;;;;8.88;6.18;;;17.40;75.80;;;;;;5078294;28;20051;-46
2021/05/27 01:34:19;;;;;;;11.18;5.90;;;17.40;75.90;;;;;;5078269;28;20412;-48
2021/05/27 01:36:46;;;;;;;6.78;5.70;;;17.30;76.00;;;;;;5078069;28;20355;-46
2021/05/27 01:39:12;;;;;;;7.13;5.80;;;17.30;76.00;;;;;;5077923;28;20025;-49
2021/05/27 01:41:38;;;;;;;7.35;5.68;;;17.30;76.10;;;;;;5078235;28;20025;-47
2021/05/27 01:44:04;;;;;;;5.78;5.15;;;17.30;76.10;;;;;;5077652;28;20024;-45
2021/05/27 01:46:30;;;;;;;9.23;6.68;;;17.30;76.20;;;;;;5077932;28;20056;-46
2021/05/27 01:48:55;;;;;;;7.93;5.82;;;17.30;76.30;;;;;;5077726;28;20416;-47
2021/05/27 01:51:21;;;;;;;6.30;5.38;;;17.30;76.40;;;;;;5077774;28;20032;-46
2021/05/27 01:53:47;;;;;;;7.30;5.53;;;17.30;76.40;;;;;;5077360;28;20044;-46
2021/05/27 01:56:13;;;;;;;7.38;5.15;;;17.30;76.40;;;;;;5077697;28;20074;-45
2021/05/27 01:58:39;;;;;;;7.47;5.60;;;17.30;76.40;;;;;;5077276;28;20081;-47
2021/05/27 02:01:05;;;;;;;8.38;5.18;;;17.30;76.50;;;;;;5076630;28;20028;-46
2021/05/27 02:03:31;;;;;;;6.82;5.18;;;17.30;76.60;;;;;;5077422;28;20421;-49
2021/05/27 02:05:57;;;;;;;9.32;5.55;;;17.30;76.50;;;;;;5077692;28;20058;-47
2021/05/27 02:08:23;;;;;;;11.63;5.53;;;17.30;76.50;;;;;;5077403;28;20024;-47
2021/05/27 02:10:49;;;;;;;7.15;5.53;;;17.30;76.60;;;;;;5077432;28;20401;-46
2021/05/27 02:13:14;;;;;;;7.88;5.40;;;17.30;76.60;;;;;;5077124;28;20025;-46
2021/05/27 02:15:40;;;;;;;6.70;5.40;;;17.30;76.60;;;;;;5077504;28;20032;-47
2021/05/27 02:18:06;;;;;;;7.03;5.43;;;17.30;76.70;;;;;;5076815;28;20042;-46
2021/05/27 02:20:32;;;;;;;7.18;6.00;;;17.30;76.70;;;;;;5077147;28;20024;-46
2021/05/27 02:22:58;;;;;;;8.60;5.15;;;17.30;76.80;;;;;;5077324;28;20111;-47
2021/05/27 02:25:24;;;;;;;6.97;5.30;;;17.30;76.80;;;;;;5077083;28;20029;-46
2021/05/27 02:27:49;;;;;;;9.18;6.78;;;17.30;76.90;;;;;;5077308;28;20098;-47
2021/05/27 02:30:16;;;;;;;6.95;5.80;;;17.40;77.00;;;;;;5076785;28;20401;-48
2021/05/27 02:32:41;;;;;;;8.52;6.00;;;17.40;76.90;;;;;;5077210;28;20032;-47
2021/05/27 02:35:08;;;;;;;6.75;6.05;;;17.40;77.00;;;;;;5076965;28;20039;-45
2021/05/27 02:37:33;;;;;;;9.10;6.00;;;17.40;77.10;;;;;;5077628;28;20412;-38
2021/05/27 02:39:59;;;;;;;10.30;5.78;;;17.40;77.40;;;;;;5076901;28;20035;-38
2021/05/27 02:42:24;;;;;;;6.10;5.00;;;17.50;77.50;;;;;;5077169;28;20028;-47
2021/05/27 02:44:50;;;;;;;10.07;5.55;;;17.50;77.50;;;;;;5076743;28;20466;-39
2021/05/27 02:47:16;;;;;;;10.48;5.35;;;17.60;77.50;;;;;;5075906;28;20032;-39
2021/05/27 02:49:41;;;;;;;7.72;4.93;;;17.60;77.50;;;;;;5076567;28;20029;-38
2021/05/27 02:52:07;;;;;;;6.80;4.90;;;17.70;77.60;;;;;;5077118;28;20317;-46
2021/05/27 02:54:33;;;;;;;8.95;5.43;;;17.70;77.50;;;;;;5076508;28;20359;-39
2021/05/27 02:56:59;;;;;;;9.48;4.88;;;17.80;77.60;;;;;;5076745;28;20086;-38
2021/05/27 02:59:26;;;;;;;9.52;5.40;;;17.80;77.60;;;;;;5076394;28;20035;-45
2021/05/27 03:01:52;;;;;;;7.68;5.30;;;17.90;77.80;;;;;;5076596;28;20083;-38
2021/05/27 03:04:19;;;;;;;5.60;4.75;;;18.00;77.90;;;;;;5076467;28;20032;-45
2021/05/27 03:06:45;;;;;;;16.55;4.90;;;18.00;77.80;;;;;;5076538;28;20045;-38
2021/05/27 03:09:11;;;;;;;21.77;5.75;;;18.10;77.80;;;;;;5076578;28;20115;-38
2021/05/27 03:11:37;;;;;;;7.90;5.20;;;18.10;77.70;;;;;;5076244;28;20371;-39
2021/05/27 03:14:03;;;;;;;5.88;4.53;;;18.10;77.70;;;;;;5076468;28;20020;-39
2021/05/27 03:16:28;;;;;;;7.28;4.90;;;18.20;77.70;;;;;;5076356;28;20028;-39
2021/05/27 03:18:54;;;;;;;6.93;5.25;;;18.20;77.80;;;;;;5076233;28;20400;-47
2021/05/27 03:21:20;;;;;;;9.60;5.57;;;18.30;77.80;;;;;;5076258;28;20078;-46
2021/05/27 03:23:46;;;;;;;7.53;5.47;;;18.40;78.10;;;;;;5076031;28;20021;-39
2021/05/27 03:26:12;;;;;;;9.32;4.78;;;18.40;78.00;;;;;;5076114;28;20036;-38
2021/05/27 03:28:38;;;;;;;6.22;4.70;;;18.50;77.80;;;;;;5075980;28;20051;-45
2021/05/27 03:31:03;;;;;;;9.77;5.93;;;18.50;77.80;;;;;;5076137;28;20024;-38
2021/05/27 03:33:29;;;;;;;7.40;5.07;;;18.60;77.80;;;;;;5075839;28;20128;-38
2021/05/27 03:35:55;;;;;;;6.45;4.90;;;18.70;77.90;;;;;;5075819;28;20040;-46
2021/05/27 03:38:20;;;;;;;6.78;4.93;;;18.70;77.80;;;;;;5075647;28;20032;-48
2021/05/27 03:40:46;;;;;;;5.88;4.53;;;18.80;77.70;;;;;;5076041;28;20069;-46
2021/05/27 03:43:12;;;;;;;6.13;4.82;;;18.80;77.60;;;;;;5076270;28;20029;-46
2021/05/27 03:45:38;;;;;;;7.05;4.53;;;18.90;77.60;;;;;;5075963;28;20436;-47
2021/05/27 03:48:05;;;;;;;5.80;4.50;;;18.90;77.60;;;;;;5075911;28;20083;-49
2021/05/27 03:50:31;;;;;;;4.30;3.78;;;19.00;77.50;;;;;;5076297;28;20028;-47
2021/05/27 03:53:01;;;;;;;5.35;3.80;;;19.00;77.50;;;;;;5075702;28;20037;-39
2021/05/27 03:55:27;;;;;;;7.50;3.72;;;19.10;77.20;;;;;;5076120;28;20063;-46
2021/05/27 03:57:53;;;;;;;7.00;3.50;;;19.20;77.00;;;;;;5076057;28;20033;-39
2021/05/27 04:03:08;;;;;;;5.55;3.33;;;19.30;76.10;;;;;;5076344;28;20058;-47
2021/05/27 04:08:19;;;;;;;4.18;3.65;;;19.40;75.70;;;;;;5075268;28;20497;-46
2021/05/27 04:10:45;;;;;;;4.68;2.88;;;19.40;75.60;;;;;;5075415;28;20031;-39
2021/05/27 04:13:12;;;;;;;4.75;3.58;;;19.50;75.60;;;;;;5075791;28;20036;-46
2021/05/27 04:15:38;;;;;;;8.80;3.60;;;19.50;75.40;;;;;;5075080;28;20055;-47
2021/05/27 04:18:05;;;;;;;5.65;3.67;;;19.50;75.40;;;;;;5075520;28;20032;-38
2021/05/27 04:20:35;;;;;;;4.38;3.78;;;19.50;75.60;;;;;;5075338;28;20039;-39
2021/05/27 04:23:03;;;;;;;5.28;3.50;;;19.60;75.40;;;;;;5075886;28;20028;-47
2021/05/27 04:25:28;;;;;;;4.53;3.83;;;19.60;75.60;;;;;;5079888;28;20328;-48
2021/05/27 04:27:56;;;;;;;10.23;6.50;;;19.60;75.70;;;;;;5078993;28;20035;-47
2021/05/27 04:30:23;;;;;;;18.10;12.25;;;19.70;75.80;;;;;;5079566;28;20482;-44
2021/05/27 04:32:59;;;;;;;22.50;15.57;;;19.70;76.20;;;;;;5079466;28;20037;-46
2021/05/27 04:35:32;;;;;;;43.22;28.48;;;19.70;76.40;;;;;;5079523;28;20419;-38
2021/05/27 04:38:09;;;;;;;20.77;12.98;;;19.70;76.40;;;;;;5079164;28;20028;-38
2021/05/27 04:40:35;;;;;;;14.93;11.90;;;19.70;76.00;;;;;;5079167;28;20055;-38
2021/05/27 04:43:01;;;;;;;30.65;8.95;;;19.80;75.70;;;;;;5079105;28;20032;-46
2021/05/27 04:45:27;;;;;;;7.97;4.85;;;19.90;75.40;;;;;;5079326;28;20029;-39
2021/05/27 04:47:54;;;;;;;5.75;3.97;;;19.90;74.50;;;;;;5079141;28;20203;-46
2021/05/27 04:50:21;;;;;;;6.72;4.60;;;19.90;73.20;;;;;;5078671;28;20058;-38
2021/05/27 04:52:49;;;;;;;6.25;4.63;;;20.00;73.10;;;;;;5079054;28;20037;-47
2021/05/27 04:55:16;;;;;;;4.40;3.83;;;20.10;72.80;;;;;;5078662;28;20048;-47
2021/05/27 04:57:41;;;;;;;11.18;5.18;;;20.10;72.30;;;;;;5078740;28;20039;-47
2021/05/27 05:00:11;;;;;;;7.72;5.50;;;20.20;71.60;;;;;;5078199;28;20328;-48
2021/05/27 05:02:37;;;;;;;9.55;5.25;;;20.30;71.00;;;;;;5078600;28;20451;-48
2021/05/27 05:05:03;;;;;;;6.63;4.82;;;20.40;70.50;;;;;;5078257;28;20020;-47
2021/05/27 05:07:29;;;;;;;6.22;3.90;;;20.40;70.40;;;;;;5078546;28;20032;-46
2021/05/27 05:09:55;;;;;;;5.80;3.95;;;20.50;70.20;;;;;;5078491;28;20040;-46
2021/05/27 05:12:20;;;;;;;9.82;5.60;;;20.60;70.10;;;;;;5078480;28;20028;-50
2021/05/27 05:14:46;;;;;;;7.60;5.57;;;20.60;69.90;;;;;;5078040;28;20024;-46
2021/05/27 05:17:12;;;;;;;16.00;9.63;;;20.70;69.60;;;;;;5078548;28;20032;-49
2021/05/27 05:19:37;;;;;;;11.95;5.90;;;20.80;69.60;;;;;;5077673;28;20071;-49
2021/05/27 05:22:03;;;;;;;20.65;6.80;;;20.80;69.40;;;;;;5078371;28;20071;-47
2021/05/27 05:24:29;;;;;;;8.93;5.53;;;20.90;69.00;;;;;;5077780;28;20107;-49
2021/05/27 05:26:54;;;;;;;17.25;7.18;;;21.00;69.50;;;;;;5077882;28;20032;-46
2021/05/27 05:29:20;;;;;;;24.75;12.73;;;21.00;68.70;;;;;;5078282;28;20032;-46
2021/05/27 05:31:46;;;;;;;46.25;19.52;;;21.10;67.70;;;;;;5078180;28;20420;-50
2021/05/27 05:34:11;;;;;;;33.88;15.43;;;21.10;66.00;;;;;;5077890;28;20167;-46
2021/05/27 05:36:37;;;;;;;30.02;14.00;;;21.20;65.90;;;;;;5077955;28;20032;-49
2021/05/27 05:39:04;;;;;;;37.42;18.15;;;21.20;66.10;;;;;;5077585;28;20030;-46
2021/05/27 05:41:30;;;;;;;32.83;16.65;;;21.20;65.90;;;;;;5078303;28;20048;-47
2021/05/27 05:43:55;;;;;;;35.85;16.33;;;21.30;65.60;;;;;;5078032;28;20020;-47
2021/05/27 05:46:21;;;;;;;38.72;17.65;;;21.30;65.40;;;;;;5073290;28;20109;-47
2021/05/27 05:48:46;;;;;;;35.13;18.90;;;21.40;65.30;;;;;;5074554;28;20117;-50
2021/05/27 05:51:12;;;;;;;35.00;17.33;;;21.40;64.90;;;;;;5077721;28;20040;-48
2021/05/27 05:53:38;;;;;;;25.50;12.50;;;21.50;64.70;;;;;;5077048;28;20045;-39
2021/05/27 05:56:04;;;;;;;13.55;8.82;;;21.50;65.40;;;;;;5077516;28;20083;-39
2021/05/27 05:58:30;;;;;;;20.50;8.98;;;21.60;65.50;;;;;;5076818;28;20036;-39
2021/05/27 06:00:56;;;;;;;12.15;7.57;;;21.60;65.50;;;;;;5077059;28;20021;-39
2021/05/27 06:03:21;;;;;;;12.02;7.30;;;21.70;65.40;;;;;;5077173;28;20359;-39
2021/05/27 06:05:47;;;;;;;17.83;9.45;;;21.70;65.30;;;;;;5077076;28;20029;-40
2021/05/27 06:08:13;;;;;;;8.25;5.80;;;21.80;65.10;;;;;;5076712;28;20081;-39
2021/05/27 06:10:39;;;;;;;11.25;6.13;;;21.80;65.10;;;;;;5076770;28;20021;-39
2021/05/27 06:13:05;;;;;;;10.57;6.00;;;21.90;64.90;;;;;;5076961;28;20079;-39
2021/05/27 06:15:31;;;;;;;13.00;7.53;;;21.90;65.00;;;;;;5076679;28;20093;-39
2021/05/27 06:17:59;;;;;;;11.07;8.30;;;21.90;64.40;;;;;;5076616;28;20119;-40
2021/05/27 06:20:27;;;;;;;16.42;6.45;;;22.00;63.40;;;;;;5076901;28;20391;-39
2021/05/27 06:22:56;;;;;;;13.65;6.95;;;22.00;64.30;;;;;;5076312;28;20044;-39
2021/05/27 06:25:23;;;;;;;11.07;7.53;;;22.10;64.00;;;;;;5076928;28;20056;-39
2021/05/27 06:27:49;;;;;;;9.07;6.82;;;22.10;63.50;;;;;;5075879;28;20075;-39
2021/05/27 06:30:16;;;;;;;12.57;7.25;;;22.20;63.60;;;;;;5076562;28;20028;-39
2021/05/27 06:32:42;;;;;;;8.90;6.75;;;22.20;63.40;;;;;;5076614;28;20036;-39
2021/05/27 06:35:10;;;;;;;11.90;7.32;;;22.30;64.20;;;;;;5076465;28;20044;-39
2021/05/27 06:37:39;;;;;;;13.70;8.90;;;22.30;64.60;;;;;;5076446;28;20040;-40
2021/05/27 06:40:07;;;;;;;14.40;9.18;;;22.40;64.70;;;;;;5076170;28;20032;-40
2021/05/27 06:42:33;;;;;;;9.13;7.10;;;22.40;64.70;;;;;;5076565;28;20117;-47
2021/05/27 06:44:58;;;;;;;11.88;9.10;;;22.50;64.60;;;;;;5076263;28;20029;-47
2021/05/27 06:47:24;;;;;;;10.10;6.80;;;22.50;65.00;;;;;;5075971;28;20332;-47
2021/05/27 06:49:50;;;;;;;8.07;6.32;;;22.60;64.00;;;;;;5076081;28;20416;-46
2021/05/27 06:52:16;;;;;;;8.88;5.63;;;22.60;63.60;;;;;;5076545;28;20094;-47
2021/05/27 06:54:41;;;;;;;16.67;9.70;;;22.60;63.40;;;;;;5076173;28;20052;-47
2021/05/27 06:57:07;;;;;;;12.75;10.55;;;22.70;64.60;;;;;;5071650;28;20123;-45
2021/05/27 06:59:33;;;;;;;15.70;10.88;;;22.70;64.90;;;;;;5075878;28;20024;-46
2021/05/27 07:01:58;;;;;;;15.45;9.88;;;22.70;64.50;;;;;;5075984;28;20047;-47
2021/05/27 07:04:24;;;;;;;8.98;6.75;;;22.80;64.80;;;;;;5075869;28;20108;-45
2021/05/27 07:06:50;;;;;;;19.60;12.45;;;22.80;63.80;;;;;;5075769;28;20029;-45
2021/05/27 07:09:15;;;;;;;11.38;9.70;;;22.80;64.10;;;;;;5076016;28;20024;-45
2021/05/27 07:11:41;;;;;;;16.58;11.48;;;22.80;64.30;;;;;;5075516;28;20061;-46
2021/05/27 07:14:07;;;;;;;14.10;8.48;;;22.90;64.70;;;;;;5075898;28;20158;-46
2021/05/27 07:16:33;;;;;;;42.72;27.25;;;22.90;64.40;;;;;;5075701;28;20033;-46
2021/05/27 07:18:59;;;;;;;17.25;12.13;;;22.90;64.00;;;;;;5075021;28;20035;-46
2021/05/27 07:21:25;;;;;;;14.88;10.30;;;23.00;63.90;;;;;;5075142;28;20036;-46
2021/05/27 07:23:51;;;;;;;11.30;7.47;;;23.00;64.10;;;;;;5075910;28;20039;-50
2021/05/27 07:26:17;;;;;;;8.95;7.90;;;23.10;63.60;;;;;;5075748;28;20029;-47
2021/05/27 07:28:42;;;;;;;12.18;10.65;;;23.20;63.70;;;;;;5075426;28;20021;-48
2021/05/27 07:31:09;;;;;;;15.70;11.50;;;23.20;64.10;;;;;;5075220;28;20032;-46
2021/05/27 07:33:34;;;;;;;10.73;9.52;;;23.30;64.10;;;;;;5057733;28;20028;-47
2021/05/27 07:36:00;;;;;;;19.38;10.85;;;23.30;64.40;;;;;;5075407;28;20078;-46
2021/05/27 07:38:26;;;;;;;14.95;10.45;;;23.30;64.60;;;;;;5075043;28;20063;-47
2021/05/27 07:40:51;;;;;;;19.30;12.32;;;23.30;64.60;;;;;;5074947;28;20104;-48
2021/05/27 07:43:17;;;;;;;15.32;11.45;;;23.30;64.60;;;;;;5074920;28;20036;-46
2021/05/27 07:45:43;;;;;;;22.13;13.18;;;23.40;64.40;;;;;;5074850;28;20432;-48
2021/05/27 07:48:09;;;;;;;16.73;13.27;;;23.40;64.60;;;;;;5075060;28;20071;-47
2021/05/27 07:50:34;;;;;;;21.20;15.02;;;23.50;64.70;;;;;;5075518;28;20029;-53
2021/05/27 07:53:00;;;;;;;18.73;14.35;;;23.60;64.80;;;;;;5075201;28;20093;-49
2021/05/27 07:55:26;;;;;;;17.38;12.80;;;23.60;64.10;;;;;;5074592;28;20045;-45
2021/05/27 07:57:53;;;;;;;19.80;14.18;;;23.60;63.90;;;;;;5074592;28;20039;-38
2021/05/27 08:00:19;;;;;;;17.25;12.68;;;23.60;64.30;;;;;;5075370;28;20392;-39
2021/05/27 08:02:47;;;;;;;14.57;10.38;;;23.70;64.50;;;;;;5074901;28;20036;-39
2021/05/27 08:05:14;;;;;;;18.48;11.00;;;23.70;64.60;;;;;;5075496;28;20028;-45
2021/05/27 08:07:41;;;;;;;18.30;12.00;;;23.70;64.00;;;;;;5074864;28;20036;-39
2021/05/27 08:10:09;;;;;;;18.83;10.82;;;23.80;63.90;;;;;;5075086;28;20119;-46
2021/05/27 08:12:35;;;;;;;16.15;11.15;;;23.80;63.90;;;;;;5074896;28;20032;-46
2021/05/27 08:15:00;;;;;;;15.68;11.57;;;23.90;63.80;;;;;;5074740;28;20021;-47
2021/05/27 08:17:26;;;;;;;15.98;10.93;;;23.90;63.50;;;;;;5074792;28;20120;-45
2021/05/27 08:19:52;;;;;;;21.15;12.30;;;23.90;63.40;;;;;;5075113;28;20086;-45
2021/05/27 08:22:18;;;;;;;16.42;10.75;;;24.00;63.30;;;;;;5074905;28;20040;-45
2021/05/27 08:24:44;;;;;;;15.00;9.27;;;24.00;63.10;;;;;;5074711;28;20025;-45
2021/05/27 08:27:10;;;;;;;12.45;9.38;;;24.10;62.80;;;;;;5074963;28;20055;-46
2021/05/27 08:29:36;;;;;;;17.45;11.77;;;24.10;63.10;;;;;;5074371;28;20428;-46
2021/05/27 08:32:01;;;;;;;14.73;9.80;;;24.20;62.80;;;;;;5074642;28;20043;-45
2021/05/27 08:34:27;;;;;;;13.30;8.07;;;24.20;63.30;;;;;;5074870;28;20060;-45
2021/05/27 08:36:53;;;;;;;10.32;8.43;;;24.30;63.50;;;;;;5074500;28;20056;-45
2021/05/27 08:39:18;;;;;;;11.95;9.30;;;24.40;63.50;;;;;;5074945;28;20025;-49
2021/05/27 08:41:47;;;;;;;14.43;9.00;;;24.40;63.30;;;;;;5074892;28;20112;-48
2021/05/27 08:44:13;;;;;;;13.18;8.45;;;24.50;62.70;;;;;;5074624;28;20405;-46
2021/05/27 08:46:40;;;;;;;10.40;6.85;;;24.60;62.10;;;;;;5074744;28;20503;-46
2021/05/27 08:49:06;;;;;;;11.15;7.15;;;24.60;62.10;;;;;;5074946;28;20373;-46
2021/05/27 08:51:35;;;;;;;9.43;7.90;;;24.70;61.70;;;;;;5075243;28;20120;-45
2021/05/27 08:54:05;;;;;;;11.30;7.45;;;24.80;61.10;;;;;;5074155;28;20567;-45
2021/05/27 08:56:31;;;;;;;11.82;8.57;;;24.80;60.80;;;;;;5075010;28;20063;-45
2021/05/27 08:58:57;;;;;;;9.20;6.32;;;24.90;60.10;;;;;;5074493;28;20459;-45
2021/05/27 09:01:24;;;;;;;11.30;7.70;;;25.00;60.00;;;;;;5074741;28;20036;-45
2021/05/27 09:03:50;;;;;;;9.90;6.05;;;25.10;59.70;;;;;;5074544;28;20106;-46
2021/05/27 09:06:17;;;;;;;10.50;6.20;;;25.10;59.80;;;;;;5073794;28;20420;-46
2021/05/27 09:08:43;;;;;;;7.10;4.00;;;25.20;59.70;;;;;;5073918;28;20074;-45
2021/05/27 09:11:10;;;;;;;5.57;4.22;;;25.30;58.10;;;;;;5078371;28;20044;-45
2021/05/27 09:13:38;;;;;;;6.68;4.85;;;25.40;57.60;;;;;;5078043;28;20028;-46
2021/05/27 09:16:10;;;;;;;10.77;4.22;;;25.60;56.20;;;;;;5078046;28;20028;-45
2021/05/27 09:18:38;;;;;;;7.80;4.32;;;25.70;55.40;;;;;;5078117;28;20043;-46
2021/05/27 09:21:06;;;;;;;7.13;5.53;;;25.80;55.10;;;;;;5077803;28;20110;-47
2021/05/27 09:23:34;;;;;;;11.25;6.30;;;26.00;55.10;;;;;;5077695;28;20417;-46
2021/05/27 09:26:08;;;;;;;12.68;6.22;;;26.10;55.60;;;;;;5077768;28;20033;-45
2021/05/27 09:28:35;;;;;;;9.68;6.50;;;26.30;56.60;;;;;;5077749;28;20104;-46
2021/05/27 09:31:09;;;;;;;17.20;11.13;;;26.30;56.50;;;;;;5078015;28;20067;-48
2021/05/27 09:33:39;;;;;;;13.68;10.80;;;26.50;55.60;;;;;;5077949;28;20116;-46
2021/05/27 09:36:10;;;;;;;16.05;10.25;;;26.50;55.40;;;;;;5077864;28;20059;-48
2021/05/27 09:38:41;;;;;;;17.05;14.25;;;26.60;55.20;;;;;;5074836;28;20060;-46
2021/05/27 09:41:17;;;;;;;7.20;5.40;;;26.60;55.60;;;;;;5076141;28;20433;-48
2021/05/27 09:43:47;;;;;;;9.60;4.70;;;26.60;55.40;;;;;;5077583;28;20024;-46
2021/05/27 09:46:13;;;;;;;7.95;4.20;;;26.70;55.70;;;;;;5077633;28;20482;-45
2021/05/27 09:48:39;;;;;;;7.15;4.05;;;26.70;55.80;;;;;;5076880;28;20036;-45
2021/05/27 09:51:05;;;;;;;5.28;3.80;;;26.70;55.50;;;;;;5077981;28;20032;-46
2021/05/27 09:53:34;;;;;;;5.30;4.03;;;26.70;55.50;;;;;;5077218;28;20049;-50
2021/05/27 09:56:04;;;;;;;6.50;4.03;;;26.80;55.90;;;;;;5077466;28;20424;-46
2021/05/27 09:58:30;;;;;;;4.90;4.00;;;26.70;56.10;;;;;;5077117;28;20039;-46
2021/05/27 10:00:56;;;;;;;10.23;5.07;;;26.70;56.70;;;;;;5076886;28;20561;-45
2021/05/27 10:03:26;;;;;;;6.15;4.05;;;26.70;57.20;;;;;;5077314;28;20118;-46
2021/05/27 10:05:52;;;;;;;5.68;4.13;;;26.70;57.60;;;;;;5077270;28;20025;-46
2021/05/27 10:08:20;;;;;;;8.55;4.15;;;26.60;57.30;;;;;;5076893;28;20060;-46
2021/05/27 10:10:47;;;;;;;9.43;4.28;;;26.50;57.50;;;;;;5076597;28;20024;-44
2021/05/27 10:13:14;;;;;;;5.05;3.78;;;26.50;57.60;;;;;;5077335;28;20029;-46
2021/05/27 10:15:43;;;;;;;5.88;4.07;;;26.40;57.50;;;;;;5077058;28;20281;-48
2021/05/27 10:18:13;;;;;;;5.43;3.53;;;26.30;57.50;;;;;;5077355;28;20154;-47
2021/05/27 10:20:39;;;;;;;6.82;3.65;;;26.30;57.40;;;;;;5075738;28;20048;-48
2021/05/27 10:23:07;;;;;;;4.57;4.00;;;26.30;57.10;;;;;;5077096;28;20484;-46
2021/05/27 10:25:33;;;;;;;9.43;4.38;;;26.40;57.10;;;;;;5076945;28;20051;-46
2021/05/27 10:28:03;;;;;;;5.15;3.28;;;26.40;57.40;;;;;;5076933;28;20311;-45
2021/05/27 10:30:33;;;;;;;5.22;3.42;;;26.50;57.50;;;;;;5075439;28;20119;-47
2021/05/27 10:33:00;;;;;;;;;;;26.60;57.50;;;;;;5077562;28;20039;-48
2021/05/27 10:35:59;;;;;;;5.25;3.60;;;26.60;57.70;;;;;;5076843;28;19966;-45
2021/05/27 10:38:40;;;;;;;4.82;3.70;;;26.70;57.50;;;;;;5076758;28;20420;-45
2021/05/27 10:41:06;;;;;;;5.40;4.00;;;26.80;57.70;;;;;;5076921;28;20154;-45
2021/05/27 10:43:33;;;;;;;7.60;4.15;;;26.90;57.00;;;;;;5058338;28;20426;-46
2021/05/27 10:46:08;;;;;;;6.82;3.50;;;27.00;56.50;;;;;;5076272;28;20085;-45
2021/05/27 10:48:44;;;;;;;4.38;3.22;;;27.10;56.10;;;;;;5076376;28;20024;-48
2021/05/27 10:51:27;;;;;;;5.68;3.20;;;27.20;55.40;;;;;;5076428;28;20089;-45
2021/05/27 10:53:58;;;;;;;6.28;3.35;;;27.30;55.00;;;;;;5075262;28;20044;-46
2021/05/27 10:56:32;;;;;;;9.75;2.85;;;27.40;54.20;;;;;;5076394;28;20032;-48
2021/05/27 10:58:58;;;;;;;5.93;3.60;;;27.40;53.80;;;;;;5076297;28;20331;-45
2021/05/27 11:01:30;;;;;;;4.85;3.75;;;27.30;54.00;;;;;;5076264;28;20032;-46
2021/05/27 11:04:04;;;;;;;4.93;3.25;;;27.20;54.20;;;;;;5076281;28;20035;-46
2021/05/27 11:06:36;;;;;;;5.18;3.67;;;27.20;54.50;;;;;;5075880;28;20039;-39
2021/05/27 11:09:09;;;;;;;5.85;3.80;;;27.00;54.60;;;;;;5075900;28;20025;-46
2021/05/27 11:11:43;;;;;;;6.63;3.60;;;26.90;55.30;;;;;;5076240;28;20381;-39
2021/05/27 11:14:26;;;;;;;7.68;3.72;;;26.90;56.10;;;;;;5076265;28;20099;-39
2021/05/27 11:20:09;;;;;;;4.38;3.13;;;26.80;56.40;;;;;;5075417;28;20332;-39
2021/05/27 11:25:24;;;;;;;6.35;3.17;;;26.70;56.10;;;;;;5076105;28;20195;-39
2021/05/27 11:28:03;;;;;;;8.32;3.60;;;26.60;56.20;;;;;;5075813;28;20041;-39
2021/05/27 11:30:40;;;;;;;9.63;4.00;;;26.50;56.40;;;;;;5075889;28;20032;-39
2021/05/27 11:33:15;;;;;;;7.85;3.50;;;26.40;56.90;;;;;;5075911;28;20032;-38
2021/05/27 11:35:42;;;;;;;8.32;4.20;;;26.30;57.90;;;;;;5075692;28;20029;-46
2021/05/27 11:38:12;;;;;;;4.97;3.53;;;26.20;57.80;;;;;;5075938;28;20359;-39
2021/05/27 11:40:40;;;;;;;16.23;5.97;;;26.00;57.30;;;;;;5075666;28;20036;-39
2021/05/27 11:43:06;;;;;;;12.88;5.15;;;25.90;58.50;;;;;;5075848;28;20121;-39
2021/05/27 11:45:50;;;;;;;17.85;6.70;;;25.80;61.50;;;;;;5075746;28;20020;-48
2021/05/27 11:50:49;;;;;;;14.63;7.13;;;25.40;65.80;;;;;;5075467;28;20025;-39
2021/05/27 11:53:17;;;;;;;9.02;6.25;;;25.20;67.40;;;;;;5075306;28;20032;-39
2021/05/27 11:55:50;;;;;;;8.02;6.50;;;25.00;67.20;;;;;;5075733;28;20329;-39
2021/05/27 11:58:16;;;;;;;12.98;9.50;;;24.80;67.20;;;;;;5075283;28;20033;-45
2021/05/27 12:00:41;;;;;;;18.33;11.98;;;24.60;68.60;;;;;;5075430;28;20096;-39
2021/05/27 12:03:07;;;;;;;19.70;10.25;;;24.50;70.00;;;;;;5075834;28;20044;-49
2021/05/27 12:05:34;;;;;;;14.65;9.88;;;24.40;70.70;;;;;;5075405;28;20028;-40
2021/05/27 12:08:08;;;;;;;11.15;8.05;;;24.30;70.20;;;;;;5080764;28;20044;-39
2021/05/27 12:10:49;;;;;;;16.63;11.45;;;24.20;70.00;;;;;;5090070;28;20028;-46
2021/05/27 12:13:22;;;;;;;17.23;11.80;;;24.20;72.40;;;;;;5095432;28;20039;-45
2021/05/27 12:15:49;;;;;;;13.25;11.85;;;24.10;74.10;;;;;;5095523;28;20305;-39
2021/05/27 12:18:20;;;;;;;14.20;10.90;;;24.10;73.80;;;;;;5095474;28;20035;-38
2021/05/27 12:20:48;;;;;;;16.52;11.07;;;24.10;73.60;;;;;;5095601;28;20438;-46
2021/05/27 12:23:16;;;;;;;19.98;14.02;;;24.00;73.20;;;;;;5095278;28;20051;-46
2021/05/27 12:25:53;;;;;;;13.32;12.02;;;23.90;74.20;;;;;;5095688;28;20040;-39
2021/05/27 12:28:22;;;;;;;18.48;14.75;;;23.90;74.20;;;;;;5095114;28;20038;-48
2021/05/27 12:30:55;;;;;;;16.20;14.20;;;23.90;75.20;;;;;;5077303;28;20036;-47
2021/05/27 12:33:26;;;;;;;18.45;12.90;;;23.90;75.30;;;;;;5077033;28;20115;-38
2021/05/27 12:35:53;;;;;;;18.15;14.57;;;23.90;75.90;;;;;;5095047;28;20095;-39
2021/05/27 12:38:22;;;;;;;15.82;12.23;;;23.90;77.30;;;;;;5095132;28;20020;-39
2021/05/27 12:40:52;;;;;;;14.38;11.20;;;24.10;77.50;;;;;;5094971;28;20050;-39
2021/05/27 12:43:26;;;;;;;19.58;12.88;;;24.20;76.40;;;;;;5095447;28;20025;-47
2021/05/27 12:45:54;;;;;;;14.07;11.98;;;24.40;75.60;;;;;;5098730;28;20357;-45
2021/05/27 12:48:22;;;;;;;14.65;10.35;;;24.50;74.40;;;;;;5099210;28;20020;-45
2021/05/27 12:50:51;;;;;;;14.50;10.40;;;24.60;72.10;;;;;;5098915;28;20039;-40
2021/05/27 12:53:22;;;;;;;14.38;10.43;;;24.60;71.50;;;;;;5098896;28;20089;-39
2021/05/27 12:55:49;;;;;;;11.55;10.00;;;24.70;69.80;;;;;;5098911;28;20032;-47
2021/05/27 12:58:30;;;;;;;12.43;9.32;;;24.60;70.00;;;;;;5099186;28;20315;-44